createdAt,value
2023-03-29T00:00:28.336Z,107.17
2023-03-29T00:01:35.839Z,106.69
2023-03-29T00:02:29.858Z,107.30
2023-03-29T00:03:28.420Z,106.42
2023-03-29T00:04:28.282Z,107.17
2023-03-29T00:05:28.286Z,107.58
2023-03-29T00:06:28.221Z,106.69
2023-03-29T00:07:29.186Z,107.23
2023-03-29T00:08:28.215Z,106.35
2023-03-29T00:09:28.177Z,106.75
2023-03-29T00:10:28.183Z,106.69
2023-03-29T00:11:28.210Z,107.17
2023-03-29T00:12:29.105Z,107.72
2023-03-29T00:13:28.145Z,107.51
2023-03-29T00:14:28.134Z,107.58
2023-03-29T00:15:28.094Z,106.96
2023-03-29T00:16:28.170Z,106.89
2023-03-29T00:17:28.098Z,107.44
2023-03-29T00:18:29.014Z,106.62
2023-03-29T00:19:28.072Z,107.58
2023-03-29T00:20:28.043Z,106.89
2023-03-29T00:21:28.031Z,107.17
2023-03-29T00:22:28.067Z,106.55
2023-03-29T00:23:28.005Z,106.21
2023-03-29T00:24:28.929Z,106.35
2023-03-29T00:25:27.984Z,107.10
2023-03-29T00:26:27.969Z,106.62
2023-03-29T00:27:28.029Z,106.35
2023-03-29T00:28:27.965Z,106.08
2023-03-29T00:29:28.924Z,107.17
2023-03-29T00:30:27.928Z,107.23
2023-03-29T00:31:27.970Z,106.28
2023-03-29T00:32:27.929Z,106.62
2023-03-29T00:33:27.956Z,106.82
2023-03-29T00:34:27.884Z,106.96
2023-03-29T00:35:28.856Z,107.17
2023-03-29T00:36:27.853Z,106.21
2023-03-29T00:37:27.871Z,106.42
2023-03-29T00:38:27.826Z,106.35
2023-03-29T00:39:27.899Z,107.03
2023-03-29T00:40:27.883Z,106.55
2023-03-29T00:41:28.720Z,106.62
2023-03-29T00:42:27.819Z,106.48
2023-03-29T00:43:27.765Z,105.88
2023-03-29T00:44:27.802Z,106.75
2023-03-29T00:45:27.750Z,105.48
2023-03-29T00:46:28.720Z,106.21
2023-03-29T00:47:27.760Z,106.69
2023-03-29T00:48:27.709Z,106.48
2023-03-29T00:49:27.692Z,105.88
2023-03-29T00:50:27.694Z,106.55
2023-03-29T00:51:27.668Z,105.54
2023-03-29T00:52:28.586Z,106.21
2023-03-29T00:53:27.643Z,106.62
2023-03-29T00:54:27.634Z,105.81
2023-03-29T00:55:27.644Z,106.48
2023-03-29T00:56:27.599Z,106.35
2023-03-29T00:57:27.791Z,105.81
2023-03-29T00:58:28.508Z,106.48
2023-03-29T00:59:27.623Z,105.41
2023-03-29T01:00:27.564Z,105.68
2023-03-29T01:01:27.628Z,105.61
2023-03-29T01:02:27.586Z,106.08
2023-03-29T01:03:27.708Z,105.08
2023-03-29T01:04:28.447Z,106.01
2023-03-29T01:05:27.472Z,105.21
2023-03-29T01:06:27.516Z,105.81
2023-03-29T01:07:27.501Z,105.48
2023-03-29T01:08:27.460Z,104.56
2023-03-29T01:09:27.445Z,104.49
2023-03-29T01:10:28.376Z,104.62
2023-03-29T01:11:27.428Z,104.95
2023-03-29T01:12:27.432Z,104.23
2023-03-29T01:13:27.452Z,103.97
2023-03-29T01:14:27.366Z,104.43
2023-03-29T01:15:28.347Z,104.49
2023-03-29T01:16:27.413Z,103.52
2023-03-29T01:17:27.376Z,103.84
2023-03-29T01:18:27.361Z,102.82
2023-03-29T01:19:27.318Z,104.17
2023-03-29T01:20:27.301Z,103.01
2023-03-29T01:21:28.217Z,103.33
2023-03-29T01:22:27.263Z,103.59
2023-03-29T01:23:27.319Z,103.27
2023-03-29T01:24:27.254Z,103.14
2023-03-29T01:25:27.233Z,102.26
2023-03-29T01:26:28.166Z,103.27
2023-03-29T01:27:27.213Z,102.82
2023-03-29T01:28:27.214Z,102.76
2023-03-29T01:29:27.232Z,102.70
2023-03-29T01:30:27.170Z,102.45
2023-03-29T01:31:28.804Z,102.57
2023-03-29T01:32:27.171Z,102.57
2023-03-29T01:33:27.141Z,102.57
2023-03-29T01:34:27.175Z,102.89
2023-03-29T01:35:27.080Z,101.95
2023-03-29T01:36:27.105Z,102.89
2023-03-29T01:37:28.080Z,102.51
2023-03-29T01:38:28.976Z,102.57
2023-03-29T01:39:27.093Z,102.82
2023-03-29T01:40:27.030Z,102.63
2023-03-29T01:41:27.023Z,102.51
2023-03-29T01:42:27.034Z,102.45
2023-03-29T01:43:27.960Z,102.82
2023-03-29T01:44:26.981Z,102.76
2023-03-29T01:45:26.974Z,102.70
2023-03-29T01:46:27.031Z,102.57
2023-03-29T01:47:26.960Z,102.38
2023-03-29T01:48:27.870Z,102.32
2023-03-29T01:49:26.928Z,103.20
2023-03-29T01:50:26.948Z,102.57
2023-03-29T01:51:26.889Z,103.08
2023-03-29T01:52:26.899Z,103.20
2023-03-29T01:53:26.870Z,103.20
2023-03-29T01:54:27.824Z,103.27
2023-03-29T01:55:26.842Z,102.63
2023-03-29T01:56:26.891Z,102.45
2023-03-29T01:57:26.880Z,102.95
2023-03-29T01:58:26.904Z,102.45
2023-03-29T01:59:27.734Z,102.32
2023-03-29T02:00:26.832Z,102.89
2023-03-29T02:01:26.866Z,103.01
2023-03-29T02:02:26.771Z,102.32
2023-03-29T02:03:26.929Z,102.45
2023-03-29T02:04:27.670Z,102.82
2023-03-29T02:05:26.728Z,102.51
2023-03-29T02:06:26.737Z,102.32
2023-03-29T02:07:26.716Z,102.89
2023-03-29T02:08:26.677Z,102.13
2023-03-29T02:09:26.668Z,102.07
2023-03-29T02:10:27.617Z,102.32
2023-03-29T02:11:26.656Z,102.13
2023-03-29T02:12:26.631Z,101.95
2023-03-29T02:13:26.636Z,102.95
2023-03-29T02:14:26.607Z,102.38
2023-03-29T02:15:27.568Z,102.32
2023-03-29T02:16:26.591Z,102.07
2023-03-29T02:17:26.600Z,102.07
2023-03-29T02:18:26.579Z,102.13
2023-03-29T02:19:26.555Z,101.64
2023-03-29T02:20:27.502Z,102.20
2023-03-29T02:21:26.651Z,102.01
2023-03-29T02:22:26.497Z,102.32
2023-03-29T02:23:26.519Z,102.45
2023-03-29T02:24:26.537Z,102.51
2023-03-29T02:25:26.484Z,102.63
2023-03-29T02:26:27.400Z,102.70
2023-03-29T02:27:26.423Z,103.33
2023-03-29T02:28:26.454Z,103.20
2023-03-29T02:29:26.464Z,103.33
2023-03-29T02:30:26.432Z,103.33
2023-03-29T02:31:27.488Z,103.20
2023-03-29T02:32:26.408Z,103.78
2023-03-29T02:33:26.357Z,103.84
2023-03-29T02:34:26.384Z,104.17
2023-03-29T02:35:26.355Z,104.62
2023-03-29T02:36:27.293Z,104.23
2023-03-29T02:37:26.316Z,104.56
2023-03-29T02:38:26.297Z,105.21
2023-03-29T02:39:26.300Z,105.41
2023-03-29T02:40:26.290Z,105.41
2023-03-29T02:41:26.321Z,105.28
2023-03-29T02:42:27.177Z,105.28
2023-03-29T02:43:26.261Z,105.54
2023-03-29T02:44:26.285Z,106.01
2023-03-29T02:45:26.262Z,105.81
2023-03-29T02:46:26.272Z,106.21
2023-03-29T02:47:27.146Z,105.94
2023-03-29T02:48:26.194Z,106.28
2023-03-29T02:49:26.176Z,106.01
2023-03-29T02:50:26.168Z,106.21
2023-03-29T02:51:26.170Z,106.89
2023-03-29T02:52:27.075Z,106.89
2023-03-29T02:53:26.171Z,107.17
2023-03-29T02:54:26.154Z,107.72
2023-03-29T02:55:26.148Z,107.30
2023-03-29T02:56:26.111Z,107.72
2023-03-29T02:57:27.190Z,107.65
2023-03-29T02:58:26.067Z,108.13
2023-03-29T02:59:26.057Z,108.20
2023-03-29T03:00:26.028Z,107.93
2023-03-29T03:01:26.131Z,109.33
2023-03-29T03:02:26.079Z,108.77
2023-03-29T03:03:26.990Z,109.69
2023-03-29T03:04:26.037Z,109.26
2023-03-29T03:05:25.976Z,108.55
2023-03-29T03:06:25.993Z,108.69
2023-03-29T03:07:25.988Z,108.98
2023-03-29T03:08:26.875Z,108.98
2023-03-29T03:09:25.925Z,109.12
2023-03-29T03:10:25.943Z,109.26
2023-03-29T03:11:25.911Z,109.55
2023-03-29T03:12:25.926Z,110.27
2023-03-29T03:13:26.817Z,109.62
2023-03-29T03:14:25.856Z,109.62
2023-03-29T03:15:25.859Z,110.27
2023-03-29T03:16:25.863Z,109.91
2023-03-29T03:17:25.878Z,110.42
2023-03-29T03:18:26.750Z,109.84
2023-03-29T03:19:25.848Z,110.12
2023-03-29T03:20:25.789Z,110.34
2023-03-29T03:21:25.764Z,109.69
2023-03-29T03:22:25.800Z,109.98
2023-03-29T03:23:25.747Z,109.98
2023-03-29T03:24:26.691Z,110.85
2023-03-29T03:25:25.725Z,109.84
2023-03-29T03:26:25.724Z,110.34
2023-03-29T03:27:25.697Z,110.27
2023-03-29T03:28:25.701Z,110.71
2023-03-29T03:29:26.617Z,110.20
2023-03-29T03:30:25.695Z,110.78
2023-03-29T03:31:25.712Z,110.27
2023-03-29T03:32:25.682Z,110.71
2023-03-29T03:33:25.605Z,110.27
2023-03-29T03:34:25.621Z,110.27
2023-03-29T03:35:26.534Z,110.56
2023-03-29T03:36:25.575Z,110.56
2023-03-29T03:37:25.593Z,110.42
2023-03-29T03:38:25.655Z,110.49
2023-03-29T03:39:25.568Z,110.71
2023-03-29T03:40:26.598Z,109.84
2023-03-29T03:41:26.552Z,110.71
2023-03-29T03:42:25.529Z,110.27
2023-03-29T03:43:25.543Z,110.71
2023-03-29T03:44:25.481Z,110.63
2023-03-29T03:45:25.469Z,109.91
2023-03-29T03:46:26.691Z,109.98
2023-03-29T03:47:26.415Z,109.76
2023-03-29T03:48:25.438Z,109.91
2023-03-29T03:49:25.417Z,109.40
2023-03-29T03:50:25.406Z,109.84
2023-03-29T03:51:25.417Z,109.48
2023-03-29T03:52:25.361Z,109.76
2023-03-29T03:53:26.341Z,109.48
2023-03-29T03:54:25.405Z,109.84
2023-03-29T03:55:25.337Z,109.40
2023-03-29T03:56:25.352Z,109.55
2023-03-29T03:57:25.391Z,109.91
2023-03-29T03:58:26.267Z,109.40
2023-03-29T03:59:25.316Z,110.12
2023-03-29T04:00:25.284Z,110.12
2023-03-29T04:01:25.279Z,110.56
2023-03-29T04:02:25.350Z,109.55
2023-03-29T04:03:25.272Z,110.63
2023-03-29T04:04:26.198Z,109.91
2023-03-29T04:05:25.214Z,109.91
2023-03-29T04:06:25.222Z,110.56
2023-03-29T04:07:25.246Z,109.69
2023-03-29T04:08:25.197Z,110.27
2023-03-29T04:09:25.151Z,110.12
2023-03-29T04:10:26.114Z,110.27
2023-03-29T04:11:25.187Z,111.00
2023-03-29T04:12:25.159Z,110.27
2023-03-29T04:13:25.128Z,110.20
2023-03-29T04:14:25.113Z,111.00
2023-03-29T04:15:25.098Z,110.42
2023-03-29T04:16:26.133Z,111.44
2023-03-29T04:17:25.100Z,110.78
2023-03-29T04:18:25.159Z,111.37
2023-03-29T04:19:25.017Z,110.71
2023-03-29T04:20:25.040Z,110.56
2023-03-29T04:21:25.017Z,110.56
2023-03-29T04:22:25.997Z,110.71
2023-03-29T04:23:25.052Z,110.93
2023-03-29T04:24:25.003Z,111.15
2023-03-29T04:25:24.977Z,111.15
2023-03-29T04:26:24.929Z,111.29
2023-03-29T04:27:24.946Z,111.59
2023-03-29T04:28:25.920Z,111.59
2023-03-29T04:29:24.903Z,111.67
2023-03-29T04:30:24.998Z,111.59
2023-03-29T04:31:24.972Z,111.82
2023-03-29T04:32:24.928Z,111.74
2023-03-29T04:33:24.887Z,111.52
2023-03-29T04:34:25.824Z,111.96
2023-03-29T04:35:24.826Z,112.11
2023-03-29T04:36:24.854Z,112.34
2023-03-29T04:37:24.824Z,112.19
2023-03-29T04:38:24.820Z,112.26
2023-03-29T04:39:24.805Z,111.67
2023-03-29T04:40:25.708Z,111.96
2023-03-29T04:41:24.754Z,111.15
2023-03-29T04:42:24.742Z,111.82
2023-03-29T04:43:24.775Z,111.82
2023-03-29T04:44:24.744Z,111.59
2023-03-29T04:45:24.739Z,111.52
2023-03-29T04:46:25.696Z,111.74
2023-03-29T04:47:24.741Z,111.15
2023-03-29T04:48:24.686Z,111.52
2023-03-29T04:49:26.095Z,111.15
2023-03-29T04:50:24.644Z,111.59
2023-03-29T04:51:24.645Z,111.44
2023-03-29T04:52:25.577Z,111.44
2023-03-29T04:53:24.605Z,111.96
2023-03-29T04:54:24.595Z,111.29
2023-03-29T04:55:24.620Z,111.82
2023-03-29T04:56:24.586Z,111.96
2023-03-29T04:57:24.749Z,111.96
2023-03-29T04:58:29.557Z,112.34
2023-03-29T04:59:26.053Z,112.11
2023-03-29T05:00:24.547Z,112.11
2023-03-29T05:01:24.536Z,112.42
2023-03-29T05:02:24.659Z,112.04
2023-03-29T05:03:24.515Z,112.34
2023-03-29T05:04:25.432Z,112.34
2023-03-29T05:05:24.450Z,112.42
2023-03-29T05:06:24.462Z,111.89
2023-03-29T05:07:24.493Z,112.49
2023-03-29T05:08:24.418Z,111.59
2023-03-29T05:09:25.372Z,111.82
2023-03-29T05:10:24.450Z,112.34
2023-03-29T05:11:24.425Z,111.67
2023-03-29T05:12:24.377Z,111.37
2023-03-29T05:13:24.387Z,111.44
2023-03-29T05:14:25.263Z,112.49
2023-03-29T05:15:24.324Z,111.29
2023-03-29T05:16:24.430Z,111.59
2023-03-29T05:17:24.317Z,110.85
2023-03-29T05:18:24.315Z,110.93
2023-03-29T05:19:25.287Z,111.59
2023-03-29T05:20:24.304Z,111.52
2023-03-29T05:21:24.249Z,110.27
2023-03-29T05:22:24.243Z,111.07
2023-03-29T05:23:24.251Z,110.85
2023-03-29T05:24:25.159Z,109.98
2023-03-29T05:25:24.189Z,110.42
2023-03-29T05:26:24.195Z,110.12
2023-03-29T05:27:24.178Z,110.78
2023-03-29T05:28:24.203Z,109.69
2023-03-29T05:29:25.082Z,109.84
2023-03-29T05:30:24.143Z,109.69
2023-03-29T05:31:24.175Z,108.84
2023-03-29T05:32:24.195Z,108.91
2023-03-29T05:33:24.132Z,109.12
2023-03-29T05:34:24.086Z,108.98
2023-03-29T05:35:25.017Z,108.34
2023-03-29T05:36:24.052Z,108.13
2023-03-29T05:37:24.059Z,108.06
2023-03-29T05:38:24.059Z,107.99
2023-03-29T05:39:24.030Z,107.10
2023-03-29T05:40:24.003Z,107.86
2023-03-29T05:41:24.934Z,107.03
2023-03-29T05:42:24.016Z,106.96
2023-03-29T05:43:23.995Z,106.21
2023-03-29T05:44:23.969Z,106.62
2023-03-29T05:45:24.028Z,107.23
2023-03-29T05:46:24.870Z,106.75
2023-03-29T05:47:23.960Z,106.21
2023-03-29T05:48:23.944Z,106.08
2023-03-29T05:49:23.919Z,106.35
2023-03-29T05:50:23.869Z,106.42
2023-03-29T05:51:24.812Z,106.15
2023-03-29T05:52:23.870Z,105.94
2023-03-29T05:53:23.894Z,105.28
2023-03-29T05:54:23.825Z,106.01
2023-03-29T05:55:23.826Z,105.81
2023-03-29T05:56:24.853Z,104.88
2023-03-29T05:57:24.116Z,105.35
2023-03-29T05:58:23.904Z,105.41
2023-03-29T05:59:23.785Z,105.48
2023-03-29T06:00:24.062Z,105.35
2023-03-29T06:01:23.744Z,105.68
2023-03-29T06:02:24.820Z,105.88
2023-03-29T06:03:23.859Z,105.74
2023-03-29T06:04:23.841Z,105.54
2023-03-29T06:05:23.728Z,105.68
2023-03-29T06:06:23.713Z,105.68
2023-03-29T06:07:24.632Z,105.54
2023-03-29T06:08:23.754Z,105.15
2023-03-29T06:09:23.654Z,106.21
2023-03-29T06:10:23.620Z,106.08
2023-03-29T06:11:23.749Z,106.28
2023-03-29T06:12:23.610Z,106.21
2023-03-29T06:13:24.558Z,105.41
2023-03-29T06:14:23.571Z,105.41
2023-03-29T06:15:23.563Z,105.81
2023-03-29T06:16:23.591Z,105.88
2023-03-29T06:17:23.579Z,105.54
2023-03-29T06:18:24.490Z,105.35
2023-03-29T06:19:23.541Z,105.08
2023-03-29T06:20:23.501Z,105.15
2023-03-29T06:21:23.489Z,105.01
2023-03-29T06:22:23.472Z,105.01
2023-03-29T06:23:24.416Z,103.84
2023-03-29T06:24:23.471Z,104.62
2023-03-29T06:25:23.459Z,104.49
2023-03-29T06:26:23.461Z,104.23
2023-03-29T06:27:23.482Z,104.10
2023-03-29T06:28:24.333Z,103.91
2023-03-29T06:29:23.422Z,103.65
2023-03-29T06:30:23.396Z,103.59
2023-03-29T06:31:23.438Z,103.71
2023-03-29T06:32:23.424Z,103.20
2023-03-29T06:33:24.279Z,103.20
2023-03-29T06:34:23.337Z,103.20
2023-03-29T06:35:23.299Z,102.82
2023-03-29T06:36:23.317Z,103.27
2023-03-29T06:37:23.347Z,103.01
2023-03-29T06:38:23.509Z,102.13
2023-03-29T06:39:24.202Z,101.82
2023-03-29T06:40:23.253Z,102.07
2023-03-29T06:41:23.250Z,101.64
2023-03-29T06:42:23.252Z,101.76
2023-03-29T06:43:23.217Z,101.45
2023-03-29T06:44:24.111Z,101.45
2023-03-29T06:45:24.695Z,101.70
2023-03-29T06:46:23.193Z,101.45
2023-03-29T06:47:23.164Z,102.07
2023-03-29T06:48:23.157Z,101.33
2023-03-29T06:49:24.068Z,100.54
2023-03-29T06:50:23.119Z,100.48
2023-03-29T06:51:23.470Z,100.60
2023-03-29T06:52:23.085Z,100.78
2023-03-29T06:53:23.099Z,100.78
2023-03-29T06:54:23.990Z,100.24
2023-03-29T06:55:23.041Z,99.88
2023-03-29T06:56:23.091Z,100.00
2023-03-29T06:57:23.098Z,100.24
2023-03-29T06:58:23.065Z,99.23
2023-03-29T06:59:23.948Z,99.11
2023-03-29T07:00:23.012Z,98.82
2023-03-29T07:01:23.021Z,99.52
2023-03-29T07:02:22.964Z,99.05
2023-03-29T07:03:22.951Z,99.00
2023-03-29T07:04:23.860Z,98.47
2023-03-29T07:05:22.932Z,98.59
2023-03-29T07:06:22.947Z,98.47
2023-03-29T07:07:22.911Z,98.36
2023-03-29T07:08:22.912Z,98.24
2023-03-29T07:09:22.892Z,97.89
2023-03-29T07:10:23.779Z,97.67
2023-03-29T07:11:22.877Z,97.10
2023-03-29T07:12:22.848Z,97.44
2023-03-29T07:13:22.830Z,97.50
2023-03-29T07:14:22.796Z,97.55
2023-03-29T07:15:23.724Z,97.38
2023-03-29T07:16:22.893Z,97.44
2023-03-29T07:17:22.857Z,97.33
2023-03-29T07:18:22.894Z,97.21
2023-03-29T07:19:22.803Z,96.88
2023-03-29T07:20:22.785Z,96.54
2023-03-29T07:21:23.651Z,96.15
2023-03-29T07:22:22.705Z,96.99
2023-03-29T07:23:22.728Z,95.99
2023-03-29T07:24:22.689Z,96.10
2023-03-29T07:25:22.657Z,96.38
2023-03-29T07:26:28.616Z,95.82
2023-03-29T07:27:25.085Z,95.55
2023-03-29T07:28:22.672Z,95.39
2023-03-29T07:29:22.633Z,94.90
2023-03-29T07:30:22.583Z,94.53
2023-03-29T07:31:22.589Z,95.06
2023-03-29T07:32:22.648Z,95.12
2023-03-29T07:33:23.545Z,95.50
2023-03-29T07:34:22.571Z,95.12
2023-03-29T07:35:22.543Z,94.74
2023-03-29T07:36:22.601Z,95.22
2023-03-29T07:37:22.536Z,94.95
2023-03-29T07:38:22.494Z,95.88
2023-03-29T07:39:23.453Z,94.63
2023-03-29T07:40:22.499Z,94.90
2023-03-29T07:41:22.683Z,94.90
2023-03-29T07:42:22.458Z,95.06
2023-03-29T07:43:22.417Z,94.53
2023-03-29T07:44:23.383Z,94.37
2023-03-29T07:45:26.691Z,94.95
2023-03-29T07:46:23.993Z,94.26
2023-03-29T07:47:22.366Z,95.01
2023-03-29T07:48:22.358Z,94.85
2023-03-29T07:49:22.366Z,94.26
2023-03-29T07:50:23.513Z,94.85
2023-03-29T07:51:22.337Z,94.37
2023-03-29T07:52:22.322Z,94.74
2023-03-29T07:53:22.347Z,94.58
2023-03-29T07:54:22.432Z,94.69
2023-03-29T07:55:23.262Z,94.58
2023-03-29T07:56:22.324Z,94.26
2023-03-29T07:57:22.367Z,93.94
2023-03-29T07:58:22.261Z,94.15
2023-03-29T07:59:22.215Z,94.37
2023-03-29T08:00:23.281Z,94.05
2023-03-29T08:01:22.260Z,93.73
2023-03-29T08:02:22.307Z,94.05
2023-03-29T08:03:22.292Z,95.25
2023-03-29T08:04:22.263Z,94.50
2023-03-29T08:05:37.931Z,95.14
2023-03-29T08:06:24.566Z,94.82
2023-03-29T08:07:22.139Z,95.36
2023-03-29T08:08:22.233Z,95.14
2023-03-29T08:09:22.110Z,94.92
2023-03-29T08:10:22.173Z,94.92
2023-03-29T08:11:23.008Z,95.68
2023-03-29T08:12:24.482Z,94.92
2023-03-29T08:13:22.047Z,95.03
2023-03-29T08:14:22.110Z,94.92
2023-03-29T08:15:22.017Z,95.25
2023-03-29T08:16:22.976Z,95.03
2023-03-29T08:17:21.977Z,95.03
2023-03-29T08:18:22.008Z,94.71
2023-03-29T08:19:22.016Z,94.50
2023-03-29T08:20:21.997Z,95.14
2023-03-29T08:21:23.004Z,95.14
2023-03-29T08:22:21.977Z,94.71
2023-03-29T08:23:21.943Z,95.25
2023-03-29T08:24:21.923Z,94.82
2023-03-29T08:25:21.935Z,94.50
2023-03-29T08:26:21.910Z,94.50
2023-03-29T08:27:22.821Z,94.50
2023-03-29T08:28:21.848Z,94.71
2023-03-29T08:29:21.870Z,94.60
2023-03-29T08:30:21.876Z,94.82
2023-03-29T08:31:21.819Z,95.14
2023-03-29T08:32:22.748Z,94.82
2023-03-29T08:33:21.855Z,94.71
2023-03-29T08:34:21.789Z,95.03
2023-03-29T08:35:21.780Z,94.50
2023-03-29T08:36:21.736Z,94.50
2023-03-29T08:37:22.728Z,94.28
2023-03-29T08:38:21.734Z,94.71
2023-03-29T08:39:22.685Z,94.07
2023-03-29T08:40:21.692Z,94.07
2023-03-29T08:41:21.699Z,93.86
2023-03-29T08:42:21.703Z,93.55
2023-03-29T08:43:22.624Z,93.03
2023-03-29T08:44:21.650Z,92.82
2023-03-29T08:45:21.662Z,92.72
2023-03-29T08:46:21.678Z,92.31
2023-03-29T08:47:21.689Z,92.21
2023-03-29T08:48:21.598Z,92.72
2023-03-29T08:49:22.577Z,92.21
2023-03-29T08:50:21.561Z,91.90
2023-03-29T08:51:21.571Z,91.60
2023-03-29T08:52:21.607Z,91.10
2023-03-29T08:53:21.530Z,90.51
2023-03-29T08:54:21.529Z,90.03
2023-03-29T08:55:22.454Z,89.64
2023-03-29T08:56:21.517Z,89.35
2023-03-29T08:57:21.546Z,88.69
2023-03-29T08:58:21.461Z,88.22
2023-03-29T08:59:21.478Z,87.76
2023-03-29T09:00:21.432Z,87.49
2023-03-29T09:01:22.412Z,87.49
2023-03-29T09:02:21.691Z,87.21
2023-03-29T09:03:21.519Z,87.03
2023-03-29T09:04:21.386Z,86.32
2023-03-29T09:05:21.397Z,85.96
2023-03-29T09:06:21.404Z,85.26
2023-03-29T09:07:24.627Z,85.09
2023-03-29T09:08:21.391Z,84.83
2023-03-29T09:09:21.333Z,83.89
2023-03-29T09:10:21.321Z,84.32
2023-03-29T09:11:21.412Z,83.98
2023-03-29T09:12:22.217Z,83.48
2023-03-29T09:13:21.288Z,82.57
2023-03-29T09:14:21.251Z,81.84
2023-03-29T09:15:21.240Z,83.23
2023-03-29T09:16:21.605Z,82.08
2023-03-29T09:17:22.221Z,82.08
2023-03-29T09:18:21.262Z,82.00
2023-03-29T09:19:21.308Z,82.33
2023-03-29T09:20:21.200Z,82.00
2023-03-29T09:21:21.182Z,82.33
2023-03-29T09:22:21.140Z,82.00
2023-03-29T09:23:22.114Z,82.08
2023-03-29T09:24:21.173Z,82.08
2023-03-29T09:25:21.123Z,82.25
2023-03-29T09:26:21.118Z,81.61
2023-03-29T09:27:21.081Z,82.08
2023-03-29T09:28:21.088Z,81.45
2023-03-29T09:29:21.994Z,82.08
2023-03-29T09:30:21.054Z,81.45
2023-03-29T09:31:21.062Z,81.61
2023-03-29T09:32:21.012Z,80.97
2023-03-29T09:33:21.040Z,80.66
2023-03-29T09:34:21.203Z,80.04
2023-03-29T09:35:21.924Z,79.59
2023-03-29T09:36:20.983Z,79.82
2023-03-29T09:37:20.961Z,78.91
2023-03-29T09:38:20.994Z,79.36
2023-03-29T09:39:20.912Z,78.84
2023-03-29T09:40:20.956Z,78.91
2023-03-29T09:41:21.836Z,78.84
2023-03-29T09:42:20.912Z,78.40
2023-03-29T09:43:20.959Z,78.69
2023-03-29T09:44:30.339Z,78.32
2023-03-29T09:45:22.364Z,78.03
2023-03-29T09:46:20.875Z,77.53
2023-03-29T09:47:21.747Z,77.45
2023-03-29T09:48:20.884Z,77.17
2023-03-29T09:49:22.504Z,77.17
2023-03-29T09:50:30.977Z,76.32
2023-03-29T09:51:22.286Z,76.12
2023-03-29T09:52:21.720Z,75.43
2023-03-29T09:53:20.792Z,75.29
2023-03-29T09:54:20.743Z,74.43
2023-03-29T09:55:20.747Z,74.43
2023-03-29T09:56:20.741Z,73.77
2023-03-29T09:57:21.773Z,73.25
2023-03-29T09:58:20.792Z,72.93
2023-03-29T09:59:20.707Z,72.43
2023-03-29T10:00:20.649Z,71.75
2023-03-29T10:01:20.661Z,71.44
2023-03-29T10:02:21.711Z,70.84
2023-03-29T10:03:20.719Z,70.24
2023-03-29T10:04:20.649Z,70.01
2023-03-29T10:05:20.622Z,69.54
2023-03-29T10:06:20.678Z,69.54
2023-03-29T10:07:21.541Z,69.20
2023-03-29T10:08:20.566Z,69.31
2023-03-29T10:09:20.542Z,69.26
2023-03-29T10:10:20.520Z,69.31
2023-03-29T10:11:20.623Z,69.08
2023-03-29T10:12:20.568Z,69.08
2023-03-29T10:13:21.426Z,69.08
2023-03-29T10:14:20.506Z,68.52
2023-03-29T10:15:29.406Z,68.24
2023-03-29T10:16:22.017Z,68.24
2023-03-29T10:17:20.468Z,67.85
2023-03-29T10:18:21.382Z,67.96
2023-03-29T10:19:20.422Z,67.63
2023-03-29T10:20:21.339Z,67.74
2023-03-29T10:21:20.449Z,67.69
2023-03-29T10:22:20.399Z,67.91
2023-03-29T10:23:20.359Z,67.96
2023-03-29T10:24:21.309Z,68.13
2023-03-29T10:25:20.329Z,68.02
2023-03-29T10:26:20.356Z,68.13
2023-03-29T10:27:20.347Z,67.47
2023-03-29T10:28:20.338Z,67.31
2023-03-29T10:29:21.330Z,67.20
2023-03-29T10:30:20.296Z,66.56
2023-03-29T10:31:20.282Z,66.35
2023-03-29T10:32:20.275Z,65.62
2023-03-29T10:33:20.277Z,65.52
2023-03-29T10:34:20.232Z,64.96
2023-03-29T10:35:21.128Z,64.61
2023-03-29T10:36:20.244Z,64.21
2023-03-29T10:37:20.206Z,63.72
2023-03-29T10:38:21.142Z,63.77
2023-03-29T10:39:20.190Z,63.92
2023-03-29T10:40:20.130Z,64.01
2023-03-29T10:41:21.094Z,64.26
2023-03-29T10:42:20.137Z,64.51
2023-03-29T10:43:20.118Z,64.71
2023-03-29T10:44:20.149Z,65.01
2023-03-29T10:45:20.078Z,65.11
2023-03-29T10:46:20.085Z,64.91
2023-03-29T10:47:21.036Z,65.11
2023-03-29T10:48:20.066Z,65.31
2023-03-29T10:49:20.070Z,65.47
2023-03-29T10:50:20.026Z,65.62
2023-03-29T10:51:20.032Z,65.78
2023-03-29T10:52:19.983Z,65.93
2023-03-29T10:53:20.915Z,66.03
2023-03-29T10:54:20.024Z,66.24
2023-03-29T10:55:19.969Z,66.56
2023-03-29T10:56:19.966Z,66.61
2023-03-29T10:57:22.722Z,66.77
2023-03-29T10:58:19.895Z,67.25
2023-03-29T10:59:20.845Z,67.31
2023-03-29T11:00:19.902Z,67.63
2023-03-29T11:01:19.912Z,67.91
2023-03-29T11:02:19.925Z,67.96
2023-03-29T11:03:21.573Z,67.80
2023-03-29T11:04:19.854Z,68.29
2023-03-29T11:05:20.765Z,68.74
2023-03-29T11:06:19.788Z,68.74
2023-03-29T11:07:19.795Z,68.97
2023-03-29T11:08:19.788Z,68.74
2023-03-29T11:09:19.793Z,69.08
2023-03-29T11:10:19.757Z,69.08
2023-03-29T11:11:20.663Z,69.20
2023-03-29T11:12:20.001Z,69.31
2023-03-29T11:13:19.731Z,69.49
2023-03-29T11:14:19.699Z,68.86
2023-03-29T11:15:19.829Z,68.74
2023-03-29T11:16:19.811Z,68.74
2023-03-29T11:17:20.750Z,68.97
2023-03-29T11:18:19.665Z,68.52
2023-03-29T11:19:19.636Z,68.35
2023-03-29T11:20:19.643Z,68.52
2023-03-29T11:21:19.600Z,68.52
2023-03-29T11:22:20.539Z,68.46
2023-03-29T11:23:19.595Z,68.86
2023-03-29T11:24:19.583Z,68.69
2023-03-29T11:25:19.614Z,68.74
2023-03-29T11:26:19.562Z,68.91
2023-03-29T11:27:19.536Z,68.46
2023-03-29T11:28:20.448Z,68.24
2023-03-29T11:29:19.717Z,67.69
2023-03-29T11:30:19.493Z,67.20
2023-03-29T11:31:19.524Z,66.82
2023-03-29T11:32:19.470Z,66.40
2023-03-29T11:33:20.387Z,66.51
2023-03-29T11:34:19.470Z,65.72
2023-03-29T11:35:19.433Z,65.26
2023-03-29T11:36:19.444Z,64.41
2023-03-29T11:37:19.449Z,63.77
2023-03-29T11:38:20.338Z,63.05
2023-03-29T11:39:19.363Z,62.53
2023-03-29T11:40:19.346Z,61.75
2023-03-29T11:41:19.369Z,61.79
2023-03-29T11:42:19.347Z,61.39
2023-03-29T11:43:20.282Z,61.25
2023-03-29T11:44:19.305Z,61.57
2023-03-29T11:45:19.287Z,61.21
2023-03-29T11:46:19.342Z,61.57
2023-03-29T11:47:19.253Z,61.52
2023-03-29T11:48:19.260Z,61.57
2023-03-29T11:49:20.300Z,61.70
2023-03-29T11:50:19.217Z,61.43
2023-03-29T11:51:19.281Z,61.12
2023-03-29T11:52:19.206Z,61.21
2023-03-29T11:53:19.211Z,60.81
2023-03-29T11:54:19.205Z,61.07
2023-03-29T11:55:20.090Z,60.94
2023-03-29T11:56:19.143Z,60.90
2023-03-29T11:57:19.220Z,60.63
2023-03-29T11:58:19.135Z,60.46
2023-03-29T11:59:19.158Z,60.07
2023-03-29T12:00:19.093Z,59.81
2023-03-29T12:01:20.025Z,59.38
2023-03-29T12:02:19.140Z,59.22
2023-03-29T12:03:19.141Z,58.92
2023-03-29T12:04:19.066Z,58.47
2023-03-29T12:05:19.012Z,58.39
2023-03-29T12:06:19.950Z,58.31
2023-03-29T12:07:19.027Z,58.39
2023-03-29T12:08:19.024Z,58.07
2023-03-29T12:09:19.025Z,58.47
2023-03-29T12:10:18.954Z,58.39
2023-03-29T12:11:19.896Z,58.55
2023-03-29T12:12:18.941Z,58.76
2023-03-29T12:13:18.935Z,59.26
2023-03-29T12:14:18.928Z,59.38
2023-03-29T12:15:18.897Z,59.64
2023-03-29T12:16:19.892Z,59.77
2023-03-29T12:17:18.859Z,60.07
2023-03-29T12:18:18.880Z,60.59
2023-03-29T12:19:18.886Z,61.03
2023-03-29T12:20:18.843Z,61.30
2023-03-29T12:21:18.814Z,61.48
2023-03-29T12:22:19.768Z,62.02
2023-03-29T12:23:18.812Z,62.16
2023-03-29T12:24:18.819Z,62.72
2023-03-29T12:25:20.216Z,62.96
2023-03-29T12:26:18.743Z,63.15
2023-03-29T12:27:18.748Z,63.43
2023-03-29T12:28:19.690Z,63.77
2023-03-29T12:29:18.740Z,63.87
2023-03-29T12:30:18.689Z,64.31
2023-03-29T12:31:18.754Z,64.51
2023-03-29T12:32:18.714Z,65.16
2023-03-29T12:33:18.739Z,65.31
2023-03-29T12:34:19.585Z,65.62
2023-03-29T12:35:18.685Z,65.57
2023-03-29T12:36:18.716Z,66.03
2023-03-29T12:37:18.662Z,66.51
2023-03-29T12:38:18.779Z,66.99
2023-03-29T12:39:18.578Z,67.09